Latest Weather Observations for Marree Airport

IDS60801

Issued at 7:35 am CST Tuesday 23 September 2014 (issued every 30 minutes, with the page automatically refreshed every 10 minutes)

About weather observations | Map of weather stations | Latest weather observations for SA | Other Formats
Station Details ID: 017126 Name: MARREE AERO Lat: -29.66 Lon: 138.07 Height: 50.0 m
Data from the previous 72 hours. | See also: Recent months for locations in South Australia
Date/Time
CST
Temp
°C
App
Temp
°C
Dew
Point
Rel
Hum
%
Delta-T
°C
Wind Press
QNH
hPa
Press
MSL
hPa
Rain
since 9 am
mm
Dir
 
Spd
km/h
Gust
km/h
Spd
kts
Gust
kts
23/07:30am 18.7 12.4 9.8 56 4.7 ENE 33 44 18 24 1018.3 - 0.0
23/07:00am 17.5 12.1 9.4 59 4.2 ENE 28 37 15 20 1018.4 - 0.0
23/06:30am 17.2 11.0 9.4 60 4.1 ENE 32 39 17 21 1017.9 - 0.0
23/06:00am 17.1 11.3 9.3 60 4.1 ENE 30 39 16 21 1017.9 1017.8 0.0
23/05:30am 17.3 11.4 9.2 59 4.2 ENE 30 39 16 21 1017.7 - 0.0
23/05:00am 17.7 11.2 9.1 57 4.5 ENE 33 43 18 23 1017.3 - 0.0
23/04:30am 18.0 10.7 8.8 55 4.8 ENE 37 46 20 25 1017.2 - 0.0
23/04:00am 18.1 11.5 8.7 54 4.9 ENE 33 41 18 22 1017.4 - 0.0
23/03:30am 18.2 11.6 8.5 53 5.0 ENE 33 39 18 21 1017.6 - 0.0
23/03:00am 18.5 12.4 8.2 51 5.3 ENE 30 37 16 20 1018.1 1018.0 0.0
23/02:30am 18.6 12.7 7.7 49 5.6 E 28 37 15 20 1018.3 - 0.0
23/02:00am 18.6 12.7 7.4 48 5.7 E 28 35 15 19 1018.6 - 0.0
23/01:30am 18.5 13.2 6.7 46 5.9 E 24 28 13 15 1019.0 - 0.0
23/01:00am 18.5 13.0 5.7 43 6.3 E 24 30 13 16 1019.3 - 0.0
23/12:30am 18.8 13.4 4.6 39 6.8 E 22 28 12 15 1019.4 - 0.0
23/12:00am 19.3 13.9 4.3 37 7.2 E 22 28 12 15 1019.6 1019.5 0.0
 
Date/Time
CST
Temp
°C
App
Temp
°C
Dew
Point
Rel
Hum
%
Delta-T
°C
Wind Press
QNH
hPa
Press
MSL
hPa
Rain
since 9 am
mm
Dir
 
Spd
km/h
Gust
km/h
Spd
kts
Gust
kts
22/11:30pm 19.7 14.2 3.8 35 7.6 E 22 30 12 16 1019.7 - 0.0
22/11:00pm 18.8 13.9 2.2 33 7.6 E 17 20 9 11 1019.7 - 0.0
22/10:30pm 19.1 14.2 2.0 32 7.8 E 17 19 9 10 1019.9 - 0.0
22/10:00pm 19.9 14.9 1.4 29 8.4 E 17 20 9 11 1020.1 - 0.0
22/09:30pm 20.4 15.0 1.3 28 8.7 E 19 22 10 12 1019.9 - 0.0
22/09:00pm 20.4 15.2 0.3 26 9.0 E 17 19 9 10 1020.0 1019.9 0.0
22/08:30pm 21.2 16.0 -0.1 24 9.5 E 17 20 9 11 1019.9 - 0.0
22/08:00pm 21.6 15.9 -1.0 22 9.9 E 19 22 10 12 1019.8 - 0.0
22/07:30pm 21.8 16.3 -2.1 20 10.3 E 17 20 9 11 1019.5 - 0.0
22/07:00pm 23.0 17.1 -2.6 18 11.0 E 19 22 10 12 1019.4 - 0.0
22/06:30pm 24.4 17.9 -2.2 17 11.7 ENE 22 28 12 15 1019.3 - 0.0
22/06:00pm 25.5 17.8 -3.0 15 12.4 ENE 28 35 15 19 1019.1 1019.0 0.0
22/05:30pm 26.5 18.3 -4.1 13 13.2 E 30 35 16 19 1018.7 - 0.0
22/05:00pm 27.0 18.3 -4.8 12 13.6 E 32 43 17 23 1018.5 - 0.0
22/04:30pm 27.2 18.6 -4.6 12 13.7 ENE 32 41 17 22 1018.4 - 0.0
22/04:00pm 27.6 20.5 -4.3 12 13.9 ENE 24 35 13 19 1018.4 - 0.0
22/03:40pm 27.7 19.8 -4.3 12 13.9 ENE 28 48 15 26 1018.3 - 0.0
22/03:30pm 27.6 19.0 -4.3 12 13.9 E 32 46 17 25 1018.5 - 0.0
22/03:00pm 27.8 19.6 -4.2 12 13.9 ENE 30 48 16 26 1018.7 1018.6 0.0
22/02:55pm 28.1 19.9 -3.9 12 14.1 ENE 30 48 16 26 1018.7 - 0.0
22/02:30pm 27.4 19.8 -2.4 14 13.4 E 28 43 15 23 1019.0 - 0.0
22/02:00pm 27.0 18.7 -1.8 15 13.0 ENE 32 43 17 23 1019.5 - 0.0
22/01:44pm 27.5 19.1 -2.3 14 13.4 ENE 32 50 17 27 1019.8 - 0.0
22/01:30pm 27.1 18.7 -2.7 14 13.3 ENE 32 46 17 25 1020.0 - 0.0
22/01:00pm 27.0 18.6 -0.9 16 12.8 ENE 33 46 18 25 1020.5 - 0.0
22/12:30pm 27.0 18.9 -0.1 17 12.7 ENE 32 46 17 25 1021.2 - 0.0
22/12:15pm 26.9 18.4 0.6 18 12.4 E 35 54 19 29 1021.4 - 0.0
22/12:00pm 26.1 17.8 0.0 18 12.1 ENE 33 46 18 25 1021.9 1021.8 0.0
22/11:30am 26.0 17.8 0.6 19 11.9 ENE 33 44 18 24 1022.5 - 0.0
22/11:13am 25.3 17.0 0.0 19 11.7 NE 33 54 18 29 1022.9 - 0.0
22/11:00am 25.9 17.9 0.5 19 11.9 ENE 32 44 17 24 1023.3 - 0.0
22/10:30am 24.9 17.9 1.7 22 11.0 NE 28 39 15 21 1023.9 - 0.0
22/10:00am 23.7 17.0 1.4 23 10.4 NE 26 35 14 19 1024.4 - 0.0
22/09:30am 22.7 15.6 1.1 24 10.0 ENE 28 37 15 20 1024.6 - 0.0
22/09:00am 21.3 15.5 -0.1 24 9.5 ENE 20 28 11 15 1024.7 1024.6 0.0
22/08:30am 19.7 13.9 -1.4 24 9.1 ESE 19 22 10 12 1024.6 - 0.0
22/08:00am 17.4 11.7 -3.4 24 8.4 ESE 17 20 9 11 1024.6 - 0.0
22/07:30am 12.6 7.5 -4.9 29 6.5 SSE 13 17 7 9 1024.5 - 0.0
22/07:00am 10.9 5.0 -5.5 31 5.9 SE 17 20 9 11 1024.2 - 0.0
22/06:30am 9.0 2.7 -6.0 34 5.2 SSE 19 20 10 11 1024.1 - 0.0
22/06:00am 8.7 2.7 -6.3 34 5.1 SSE 17 20 9 11 1023.9 1023.8 0.0
22/05:30am 8.6 2.6 -6.4 34 5.1 SSE 17 19 9 10 1023.9 - 0.0
22/05:00am 8.5 2.5 -6.8 33 5.1 SSE 17 17 9 9 1023.4 - 0.0
22/04:30am 8.4 2.0 -6.5 34 5.0 SSE 19 20 10 11 1023.1 - 0.0
22/04:00am 8.5 2.5 -6.8 33 5.1 SSE 17 17 9 9 1022.9 - 0.0
22/03:30am 9.1 3.1 -6.7 32 5.4 SSE 17 20 9 11 1023.2 - 0.0
22/03:00am 9.6 3.6 -6.7 31 5.5 SSE 17 20 9 11 1023.5 1023.4 0.0
22/02:30am 10.6 4.3 -6.2 30 5.9 SSE 19 20 10 11 1024.1 - 0.0
22/02:00am 9.8 4.2 -6.1 32 5.5 S 15 17 8 9 1024.2 - 0.0
22/01:30am 10.2 3.9 -6.2 31 5.7 SE 19 20 10 11 1024.4 - 0.0
22/01:00am 10.5 4.2 -5.9 31 5.8 SE 19 20 10 11 1024.8 - 0.0
22/12:30am 11.4 5.1 -5.5 30 6.1 SE 19 20 10 11 1024.9 - 0.0
22/12:00am 12.2 5.9 -5.7 28 6.4 SSE 19 20 10 11 1025.2 1025.1 0.0
 
Date/Time
CST
Temp
°C
App
Temp
°C
Dew
Point
Rel
Hum
%
Delta-T
°C
Wind Press
QNH
hPa
Press
MSL
hPa
Rain
since 9 am
mm
Dir
 
Spd
km/h
Gust
km/h
Spd
kts
Gust
kts
21/11:30pm 13.3 7.1 -5.3 27 6.9 SSE 19 20 10 11 1025.3 - 0.0
21/11:00pm 14.3 8.4 -5.4 25 7.3 SSE 17 20 9 11 1025.4 - 0.0
21/10:30pm 14.3 8.4 -6.0 24 7.5 SE 17 19 9 10 1025.5 - 0.0
21/10:00pm 14.0 8.4 -6.2 24 7.4 ESE 15 17 8 9 1025.7 - 0.0
21/09:30pm 17.6 11.7 -5.6 20 8.9 ESE 17 20 9 11 1025.8 - 0.0
21/09:00pm 18.5 12.2 -6.2 18 9.4 E 19 24 10 13 1025.6 1025.5 0.0
21/08:30pm 18.6 13.0 -6.2 18 9.5 E 15 20 8 11 1025.4 - 0.0
21/08:00pm 19.4 13.1 -6.2 17 9.9 E 19 22 10 12 1025.0 - 0.0
21/07:30pm 20.2 14.1 -7.2 15 10.5 E 17 20 9 11 1024.7 - 0.0
21/07:00pm 21.4 14.9 -8.1 13 11.3 E 19 22 10 12 1024.3 - 0.0
21/06:30pm 22.8 16.1 -8.1 12 12.0 E 20 26 11 14 1023.8 - 0.0
21/06:00pm 24.6 17.1 -9.0 10 13.0 E 24 28 13 15 1023.3 1023.2 0.0
21/05:30pm 25.6 18.9 -8.2 10 13.4 ESE 20 32 11 17 1023.0 - 0.0
21/05:00pm 26.2 19.0 -9.1 9 13.9 ESE 22 35 12 19 1022.7 - 0.0
21/04:30pm 26.0 18.6 -7.9 10 13.6 ESE 24 37 13 20 1022.8 - 0.0
21/04:00pm 26.4 19.2 -9.0 9 14.0 ESE 22 33 12 18 1022.7 - 0.0
21/03:30pm 26.4 19.9 -7.6 10 13.8 ESE 19 33 10 18 1022.9 - 0.0
21/03:00pm 26.5 19.8 -7.6 10 13.8 ESE 20 32 11 17 1023.4 1023.3 0.0
21/02:30pm 26.1 19.2 -6.6 11 13.5 ESE 22 35 12 19 1023.9 - 0.0
21/02:00pm 26.4 18.7 -6.4 11 13.6 SSE 26 37 14 20 1024.4 - 0.0
21/01:30pm 26.0 19.4 -6.7 11 13.4 ESE 20 35 11 19 1024.8 - 0.0
21/01:00pm 25.1 18.3 -5.2 13 12.7 E 22 35 12 19 1025.3 - 0.0
21/12:30pm 25.4 19.4 -3.1 15 12.4 E 19 28 10 15 1025.9 - 0.0
21/12:00pm 24.3 16.4 -4.9 14 12.1 SE 28 35 15 19 1026.5 1026.4 0.0
21/11:30am 23.5 16.0 -4.6 15 11.7 ESE 26 35 14 19 1027.2 - 0.0
21/11:00am 22.9 15.5 -3.4 17 11.2 ESE 26 33 14 18 1027.7 - 0.0
21/10:30am 22.5 14.7 -3.7 17 11.0 E 28 35 15 19 1027.7 - 0.0
21/10:00am 21.7 13.6 -2.9 19 10.4 ESE 30 39 16 21 1027.9 - 0.0
21/09:30am 21.4 14.1 -2.5 20 10.2 E 26 37 14 20 1028.1 - 0.0
21/09:00am 20.2 14.0 -2.8 21 9.6 SE 20 26 11 14 1028.0 1027.9 0.0
21/08:30am 17.5 11.9 -2.7 25 8.3 SE 17 20 9 11 1028.1 - 0.0
21/08:00am 15.4 10.2 -3.0 28 7.3 SSE 15 17 8 9 1027.9 - 0.0
21/07:30am 12.1 6.5 -3.3 34 5.9 S 17 20 9 11 1027.8 - 0.0
21/07:00am 8.2 2.8 -4.2 41 4.4 SSE 15 19 8 10 1027.5 - 0.0
21/06:30am 6.5 1.1 -4.9 44 3.9 SSE 15 17 8 9 1027.2 - 0.0
21/06:00am 7.3 1.1 -4.4 43 4.1 SSE 19 20 10 11 1026.8 1026.7 0.0
21/05:30am 7.0 1.2 -4.4 44 4.0 SSE 17 20 9 11 1026.5 - 0.0
21/05:00am 7.6 1.2 -4.5 42 4.3 S 20 22 11 12 1026.2 - 0.0
21/04:30am 7.5 1.3 -4.9 41 4.3 SSE 19 20 10 11 1025.9 - 0.0
21/04:00am 8.0 1.6 -4.8 40 4.5 SSE 20 24 11 13 1025.7 - 0.0
21/03:30am 7.3 1.0 -5.4 40 4.3 SSE 19 20 10 11 1025.5 - 0.0
21/03:00am 8.2 2.4 -4.9 39 4.6 SSE 17 19 9 10 1025.3 1025.2 0.0
21/02:30am 8.6 2.8 -4.9 38 4.8 S 17 17 9 9 1025.5 - 0.0
21/02:00am 9.5 3.7 -4.4 37 5.0 S 17 19 9 10 1025.6 - 0.0
21/01:30am 8.2 3.5 -5.3 38 4.7 S 11 13 6 7 1025.8 - 0.0
21/01:00am 9.0 4.3 -5.2 36 5.0 SSE 11 11 6 6 1025.9 - 0.0
21/12:30am 10.0 4.9 -5.1 34 5.4 SSE 13 15 7 8 1025.9 - 0.0
21/12:00am 10.6 5.6 -4.6 34 5.5 S 13 15 7 8 1026.0 1025.9 0.0
 
Date/Time
CST
Temp
°C
App
Temp
°C
Dew
Point
Rel
Hum
%
Delta-T
°C
Wind Press
QNH
hPa
Press
MSL
hPa
Rain
since 9 am
mm
Dir
 
Spd
km/h
Gust
km/h
Spd
kts
Gust
kts
20/11:30pm 11.3 6.0 -4.0 34 5.7 S 15 17 8 9 1026.2 - 0.0
20/11:00pm 11.8 7.2 -3.9 33 5.9 S 11 13 6 7 1026.1 - 0.0
20/10:30pm 12.4 7.9 -3.4 33 6.0 S 11 13 6 7 1025.9 - 0.0
20/10:00pm 13.0 8.9 -2.9 33 6.2 SSE 9 11 5 6 1025.9 - 0.0
20/09:30pm 14.0 10.3 -2.8 31 6.6 SE 7 9 4 5 1025.8 - 0.0
20/09:00pm 15.0 10.6 -2.4 30 6.9 ESE 11 13 6 7 1025.7 1025.6 0.0
20/08:30pm 16.0 10.9 -2.0 29 7.4 E 15 17 8 9 1025.5 - 0.0
20/08:00pm 17.0 12.7 -1.6 28 7.8 E 11 13 6 7 1025.0 - 0.0
20/07:30pm 17.5 13.6 -1.7 27 8.0 E 9 11 5 6 1024.9 - 0.0
20/07:00pm 18.4 14.1 -1.4 26 8.4 E 11 13 6 7 1024.4 - 0.0
20/06:30pm 20.4 16.1 -1.4 23 9.4 NE 11 13 6 7 1023.9 - 0.0
20/06:00pm 21.4 16.8 -1.2 22 9.8 NE 13 17 7 9 1023.6 1023.5 0.0
20/05:30pm 21.7 17.8 -1.6 21 10.1 ESE 9 17 5 9 1023.4 - 0.0
20/05:00pm 22.3 18.1 -1.1 21 10.3 E 11 17 6 9 1023.0 - 0.0
20/04:30pm 21.9 17.6 -1.4 21 10.2 NE 11 22 6 12 1022.6 - 0.0
20/04:00pm 22.8 19.5 -1.3 20 10.6 N 6 13 3 7 1022.6 - 0.0
20/03:30pm 22.4 18.5 -1.6 20 10.5 SE 9 13 5 7 1022.8 - 0.0
20/03:00pm 21.6 17.3 -1.6 21 10.0 ENE 11 15 6 8 1023.1 1023.0 0.0
20/02:30pm 21.4 17.1 -1.8 21 10.0 NE 11 17 6 9 1023.3 - 0.0
20/02:00pm 21.4 16.4 -1.2 22 9.9 N 15 20 8 11 1023.4 - 0.0
20/01:30pm 21.4 16.7 -1.8 21 10.0 NE 13 19 7 10 1023.7 - 0.0
20/01:00pm 21.0 16.3 -1.5 22 9.7 NNE 13 28 7 15 1024.1 - 0.0
20/12:30pm 21.0 15.2 -1.5 22 9.7 NNE 19 26 10 14 1024.4 - 0.0
20/12:00pm 20.9 14.9 -1.6 22 9.7 NE 20 26 11 14 1024.8 1024.7 0.0
20/11:30am 20.2 13.8 -1.6 23 9.4 NE 22 30 12 16 1025.3 - 0.0
20/11:00am 19.8 13.1 -1.3 24 9.1 NE 24 32 13 17 1025.5 - 0.0
20/10:30am 19.6 12.5 -1.5 24 9.0 NE 26 33 14 18 1025.5 - 0.0
20/10:00am 18.9 12.1 -1.5 25 8.7 NE 24 35 13 19 1025.5 - 0.0
20/09:30am 18.5 11.0 -1.3 26 8.4 NE 28 33 15 18 1025.7 - 0.0
20/09:00am 17.5 10.8 -1.2 28 7.8 ENE 24 30 13 16 1025.7 1025.6 0.0
20/08:30am 16.7 10.7 -1.4 29 7.6 ENE 20 26 11 14 1025.6 - 0.0
20/08:00am 16.1 10.3 -1.5 30 7.3 ENE 19 22 10 12 1025.5 - 0.0

Other Formats:

Comma delimited format used in spreadsheet applications
http://www.bom.gov.au/fwo/IDS60801/IDS60801.95480.axf

JavaScript Object Notation format (JSON) in row-major order
http://www.bom.gov.au/fwo/IDS60801/IDS60801.95480.json